Terminal Aerodrome Forecast
Issued by NWS Charleston, WV

Current Version | Previous Version | Graphics & Text | Print | Product List | Glossary On
Versions: 1 2 3 4 5 6 7 8 9 10 11 12 13 14 15 16 17 18 19 20 21 22 23 24 25 26 27 28 29
357
FTUS41 KRLX 190309 CCB
TAFPKB
TAF COR
KPKB 190309Z 1903/1924 20013G30KT 3SM SHRA OVC025
      TEMPO 1903/1904 29015G32KT BKN008
     FM190400 29014G28KT P6SM SHRA OVC015
     FM190900 28012G22KT P6SM OVC025
     FM192100 28011G22KT P6SM BKN035=

USA.gov is the U.S. government's official web portal to all federal, state and local government web resources and services.